Share

Pampa, TX (79065)

WT_Meso Pampa 2E (MPAMT2) Elev 3215 ft | 35.54 °N, 100.93 °W | Change Station

Current weather conditions updated 27 minutes ago

Clear
Clear
74 °F
Feels Like 77 °F
N
23
Wind Variable Wind from South
Gusts 29.0 mph
Sunrise 7:06 AM
Sunset 8:20 PM
Moon Waning Gibbous

Today is forecast to be Much Warmer than yesterday.

Pressure 30.06 in
Visibility 10.0 miles
Clouds Clear
Heat Index 77 °F
Dew Point 48 °F
Humidity 41%
Rainfall -999.00 in
Snow Depth Not available.
UV 11 out of 16
Pollen 9.30 out of 12
Air Quality Not available.
Flu Activity Local Activity
METAR KPPA 191915Z AUTO 18023G28KT 10SM CLR 24/07 A3006 RMK AO2 T02440072

More Conditions Fewer Conditions

Pressure 30.06 in
Visibility 10.0 miles
Clouds Clear
Heat Index 77 °F
Dew Point 48 °F
Humidity 41%
Rainfall -999.00 in
Snow Depth Not available.
UV 11 out of 16
Pollen 9.30 out of 12
Air Quality Not available.
Flu Activity Local Activity
METAR KPPA 191915Z AUTO 18023G28KT 10SM CLR 24/07 A3006 RMK AO2 T02440072

More Conditions Fewer Conditions

10-Day Weather Forecast

Almanac

Astronomy

Apr. 19, 2014 Rise Set
Actual Time 7:06 AM CDT 8:20 PM CDT
Civil Twilight 6:39 AM CDT 8:46 PM CDT
Nautical Twilight 6:08 AM CDT 9:18 PM CDT
Astronomical Twilight 5:35 AM CDT 9:51 PM CDT
Moon 12:01 AM CDT 10:31 AM CDT
Length of Visible Light 14h 07m
Length of Day
13h 14m
Tomorrow will be 2m 6s longer.
Waning Gibbous, 77% of the Moon is Illuminated
Today
Waning Gibbous
Apr 22
Last Quarter
Apr 29
New
May 6
First Quarter
May 14
Full

Today's Extremes

State Highs State Lows

Community

  • Piriapolis
    Piriapolis
  • A Glorious Morning
    A Glorious Morning
  • Tender Rays Of Hope
    Tender Rays Of Hope
  • Bleeding Hearts
    Bleeding Hearts
  • Sunset Silhouettes
    Sunset Silhouettes

WunderPhotos

Upload Photos

1,702,858 photos uploaded!

WunderBlogs® & News

Nearby

Snow Depth

Station Depth Elevation
No new snow has been reported.

Coastal Water Temperatures

Place Temperature
No Stations Reporting

Earthquake Activity

City Distance Mag. Time & Date
No recent earthquake activity has been reported nearby.
Minimum magnitude displayed is 2.5.

Nearby Weather Stations

Station Location Temp. Heat Index Dew Point Humidity Wind Precip. Elev Updated Type
WT_Meso Pampa 2E, Pampa, TX 74 °F 77 °F 48 °F 41% South  at  23 mph 0.00 in / hr 3215 ft 1:55 PM CDT MADIS
HADS LEFORS WEATHER STATION TX, Lefors, TX 77 °F 78 °F 53 °F 44% SSW  at  7 mph 0.00 in / hr 2798 ft 2:00 PM CDT MADIS
Yucca Park, Borger, TX 77.9 °F 78 °F 50 °F 37% SSE  at  15.0 mph 0.00 in / hr 3156 ft 2:22 PM CDT Rapid Fire

Show More Stations Show Fewer Stations

What do you think?

We're not finished. Please let us know what you like, what you don't like, and what you are still missing.